Portada
METAR-TAF:

METAR-TAF

Aeroports :

Phitsanulok, Tailàndia

latitud: 16-46-23N, longitud: 100-16-56E, altitud: 47 m

Observació

L'informe es va fer fa 16 minuts, a les 10:00 UTC
Vent 5 kt del Oest
Temperatura 30°C
Humitat 40%
Pressió 1013 hPa
Visibilitat: 7000 m

METAR: VTPP 141000Z 28005KT 7000 NSC 30/15 Q1013 NOSIG

Hora: 17:16 (10:16 UTC)

Pronòstic

L'informe es va fer fa 5 hores i 16 minuts, a les 05:00 UTC
Pronòstic vàlid del 14 a les 06 UTC al 15 a les 06 UTC
Vent 5 kt del Est/Nord-Est
Visibilitat: 7000 m
Evolucionant progressivament
l' 14 a les 23 UTC al 15 a les 01 UTC
Visibilitat: 4000 m
boirina
Evolucionant progressivament
l' 15 a les 03 UTC al 15 a les 05 UTC
Visibilitat: 7000 m

TAF: VTPP 140500Z 1406/1506 06005KT 7000 NSC BECMG 1423/1501 4000 BR BECMG 1503/1505 7000 NSW

Observacions i pronòstics meteorològics de més de 4000 aeroports (METAR i TAF).

Les estacions disponibles són els punts grocs i vermells al mapa.

Posi el ratolí al punt desitjat per veure el nom de l'estació.

Feu clic per veure les observacions i els pronòstics meteorològics.

Per canviar el mapa: feu clic els botons verds amb una creu de color negre per apropar; al botó verd amb un guió per allunyar la imatge; o en les fletxes verdes per a mapes adjacents.


METAR-TAF: